createdAt,value
2018-12-12T00:00:01.981Z,3.40
2018-12-12T00:02:30.273Z,3.40
2018-12-12T00:04:59.183Z,3.50
2018-12-12T00:07:27.406Z,3.50
2018-12-12T00:09:55.372Z,3.50
2018-12-12T00:12:23.673Z,3.50
2018-12-12T00:14:51.587Z,3.50
2018-12-12T00:17:20.359Z,3.50
2018-12-12T00:19:48.273Z,3.60
2018-12-12T00:22:16.161Z,3.50
2018-12-12T00:24:44.177Z,3.60
2018-12-12T00:27:12.422Z,3.50
2018-12-12T00:29:41.927Z,3.50
2018-12-12T00:32:10.067Z,3.50
2018-12-12T00:34:38.028Z,3.50
2018-12-12T00:37:07.823Z,3.50
2018-12-12T00:39:36.976Z,3.60
2018-12-12T00:42:05.521Z,3.50
2018-12-12T00:44:33.484Z,3.70
2018-12-12T00:47:02.657Z,3.60
2018-12-12T00:49:31.858Z,3.60
2018-12-12T00:52:00.286Z,3.60
2018-12-12T00:54:29.239Z,3.60
2018-12-12T00:56:58.196Z,3.60
2018-12-12T00:59:27.649Z,3.70
2018-12-12T01:01:57.494Z,3.60
2018-12-12T01:04:27.057Z,3.60
2018-12-12T01:06:55.764Z,3.60
2018-12-12T01:09:24.830Z,3.60
2018-12-12T01:12:03.363Z,3.50
2018-12-12T01:14:31.561Z,3.50
2018-12-12T01:17:00.491Z,3.50
2018-12-12T01:19:29.867Z,3.50
2018-12-12T01:21:59.718Z,3.50
2018-12-12T01:24:28.695Z,3.50
2018-12-12T01:26:57.458Z,3.60
2018-12-12T01:29:25.946Z,3.60
2018-12-12T01:31:55.559Z,3.60
2018-12-12T01:34:24.753Z,3.60
2018-12-12T01:36:54.283Z,3.60
2018-12-12T01:39:23.098Z,3.60
2018-12-12T01:41:51.461Z,3.60
2018-12-12T01:44:20.104Z,3.30
2018-12-12T01:46:49.318Z,3.40
2018-12-12T01:49:18.634Z,3.40
2018-12-12T01:51:47.702Z,3.50
2018-12-12T01:54:16.699Z,3.60
2018-12-12T01:56:45.110Z,3.50
2018-12-12T01:59:13.260Z,3.60
2018-12-12T02:01:42.802Z,3.70
2018-12-12T02:04:11.683Z,3.50
2018-12-12T02:06:40.662Z,3.40
2018-12-12T02:09:09.588Z,3.50
2018-12-12T02:11:39.167Z,3.50
2018-12-12T02:14:07.727Z,3.50
2018-12-12T02:16:37.338Z,3.50
2018-12-12T02:19:06.994Z,3.60
2018-12-12T02:21:36.383Z,3.60
2018-12-12T02:24:05.574Z,3.50
2018-12-12T02:26:34.758Z,3.50
2018-12-12T02:29:02.857Z,3.50
2018-12-12T02:31:31.070Z,3.50
2018-12-12T02:33:59.734Z,3.40
2018-12-12T02:36:28.211Z,3.50
2018-12-12T02:38:57.522Z,3.50
2018-12-12T02:41:26.438Z,3.50
2018-12-12T02:43:55.996Z,3.50
2018-12-12T02:46:25.006Z,3.50
2018-12-12T02:48:53.461Z,3.30
2018-12-12T02:51:22.842Z,3.40
2018-12-12T02:53:52.274Z,3.60
2018-12-12T02:56:21.147Z,3.60
2018-12-12T02:58:49.212Z,3.50
2018-12-12T03:01:17.956Z,3.40
2018-12-12T03:03:46.988Z,3.50
2018-12-12T03:06:17.163Z,3.50
2018-12-12T03:08:46.902Z,3.50
2018-12-12T03:11:19.974Z,3.50
2018-12-12T03:13:49.400Z,3.50
2018-12-12T03:16:18.549Z,3.40
2018-12-12T03:18:47.451Z,3.40
2018-12-12T03:21:16.464Z,3.30
2018-12-12T03:23:45.277Z,3.40
2018-12-12T03:26:16.552Z,3.40
2018-12-12T03:28:45.818Z,3.50
2018-12-12T03:31:14.799Z,3.50
2018-12-12T03:33:42.743Z,3.40
2018-12-12T03:36:11.613Z,3.50
2018-12-12T03:38:40.400Z,3.50
2018-12-12T03:41:09.822Z,3.50
2018-12-12T03:43:39.341Z,3.40
2018-12-12T03:46:09.591Z,3.40
2018-12-12T03:48:38.277Z,3.40
2018-12-12T03:51:07.004Z,3.30
2018-12-12T03:53:36.072Z,3.30
2018-12-12T03:56:05.001Z,3.20
2018-12-12T03:58:33.075Z,3.30
2018-12-12T04:01:01.553Z,3.20
2018-12-12T04:03:30.541Z,3.20
2018-12-12T04:05:59.532Z,3.30
2018-12-12T04:08:30.144Z,3.10
2018-12-12T04:10:59.158Z,3.20
2018-12-12T04:13:27.930Z,3.30
2018-12-12T04:15:58.309Z,3.20
2018-12-12T04:18:27.239Z,3.20
2018-12-12T04:20:55.949Z,3.20
2018-12-12T04:23:24.010Z,3.20
2018-12-12T04:25:53.384Z,3.20
2018-12-12T04:28:22.655Z,3.30
2018-12-12T04:30:52.047Z,3.30
2018-12-12T04:33:20.067Z,3.30
2018-12-12T04:35:48.826Z,3.30
2018-12-12T04:38:17.492Z,3.30
2018-12-12T04:40:46.442Z,3.10
2018-12-12T04:43:15.816Z,3.20
2018-12-12T04:45:45.132Z,3.30
2018-12-12T04:48:14.520Z,3.40
2018-12-12T04:50:44.477Z,3.30
2018-12-12T04:53:13.846Z,3.30
2018-12-12T04:55:43.120Z,3.30
2018-12-12T04:58:11.252Z,3.30
2018-12-12T05:00:40.638Z,3.40
2018-12-12T05:03:10.520Z,3.30
2018-12-12T05:05:40.004Z,3.40
2018-12-12T05:08:08.161Z,3.40
2018-12-12T05:10:37.060Z,3.40
2018-12-12T05:13:06.071Z,3.30
2018-12-12T05:15:35.189Z,3.30
2018-12-12T05:18:04.563Z,3.40
2018-12-12T05:20:32.762Z,3.50
2018-12-12T05:23:01.666Z,3.50
2018-12-12T05:25:30.325Z,3.50
2018-12-12T05:27:59.242Z,3.50
2018-12-12T05:30:28.409Z,3.40
2018-12-12T05:32:57.020Z,3.40
2018-12-12T05:35:25.889Z,3.50
2018-12-12T05:37:54.557Z,3.40
2018-12-12T05:40:23.748Z,3.40
2018-12-12T05:42:53.046Z,3.40
2018-12-12T05:45:21.816Z,3.10
2018-12-12T05:47:51.288Z,3.00
2018-12-12T05:50:20.854Z,3.00
2018-12-12T05:52:50.550Z,3.10
2018-12-12T05:55:19.979Z,3.00
2018-12-12T05:57:48.925Z,3.00
2018-12-12T06:00:17.481Z,3.00
2018-12-12T06:02:45.755Z,3.00
2018-12-12T06:05:13.914Z,3.10
2018-12-12T06:07:43.304Z,3.30
2018-12-12T06:10:13.481Z,3.40
2018-12-12T06:12:43.304Z,3.30
2018-12-12T06:15:11.607Z,3.30
2018-12-12T06:17:39.903Z,3.20
2018-12-12T06:20:09.069Z,3.20
2018-12-12T06:22:38.882Z,3.10
2018-12-12T06:25:07.603Z,3.20
2018-12-12T06:27:37.501Z,3.20
2018-12-12T06:30:07.810Z,3.20
2018-12-12T06:32:37.297Z,3.10
2018-12-12T06:35:06.539Z,3.10
2018-12-12T06:37:35.113Z,3.20
2018-12-12T06:40:04.043Z,3.30
2018-12-12T06:42:33.026Z,3.20
2018-12-12T06:45:01.956Z,3.20
2018-12-12T06:47:32.275Z,3.20
2018-12-12T06:50:01.713Z,3.20
2018-12-12T06:52:31.238Z,3.20
2018-12-12T06:54:59.386Z,3.20
2018-12-12T06:57:28.077Z,3.20
2018-12-12T06:59:57.076Z,3.40
2018-12-12T07:02:25.842Z,3.30
2018-12-12T07:04:54.946Z,3.30
2018-12-12T07:07:24.926Z,3.30
2018-12-12T07:09:54.220Z,3.30
2018-12-12T07:12:22.862Z,3.30
2018-12-12T07:14:51.056Z,3.30
2018-12-12T07:17:19.842Z,3.30
2018-12-12T07:19:49.280Z,3.20
2018-12-12T07:22:18.376Z,3.30
2018-12-12T07:24:47.411Z,3.30
2018-12-12T07:27:15.997Z,3.30
2018-12-12T07:29:44.275Z,3.30
2018-12-12T07:32:13.432Z,3.40
2018-12-12T07:34:41.606Z,3.50
2018-12-12T07:37:10.156Z,3.40
2018-12-12T07:39:38.835Z,3.40
2018-12-12T07:42:06.893Z,3.30
2018-12-12T07:44:35.038Z,3.30
2018-12-12T07:47:03.892Z,3.50
2018-12-12T07:49:32.341Z,3.50
2018-12-12T07:52:01.792Z,3.40
2018-12-12T07:54:31.226Z,3.40
2018-12-12T07:57:05.714Z,3.60
2018-12-12T07:59:34.577Z,3.60
2018-12-12T08:02:04.356Z,3.60
2018-12-12T08:04:33.365Z,3.70
2018-12-12T08:07:02.801Z,3.70
2018-12-12T08:09:31.144Z,3.80
2018-12-12T08:12:09.861Z,3.80
2018-12-12T08:14:40.364Z,3.70
2018-12-12T08:17:10.348Z,3.60
2018-12-12T08:19:40.821Z,3.60
2018-12-12T08:22:09.710Z,3.70
2018-12-12T08:24:39.217Z,3.70
2018-12-12T08:27:15.273Z,3.80
2018-12-12T08:29:43.415Z,3.80
2018-12-12T08:32:13.299Z,3.70
2018-12-12T08:34:41.738Z,3.70
2018-12-12T08:37:11.482Z,3.80
2018-12-12T08:39:40.475Z,3.80
2018-12-12T08:42:09.192Z,3.80
2018-12-12T08:44:37.875Z,3.80
2018-12-12T08:47:06.023Z,3.70
2018-12-12T08:49:35.444Z,3.60
2018-12-12T08:52:06.494Z,3.70
2018-12-12T08:54:36.095Z,3.80
2018-12-12T08:57:08.066Z,3.70
2018-12-12T08:59:37.196Z,3.70
2018-12-12T09:02:06.206Z,3.70
2018-12-12T09:04:34.408Z,3.80
2018-12-12T09:07:03.868Z,3.60
2018-12-12T09:09:33.487Z,3.70
2018-12-12T09:12:04.648Z,3.60
2018-12-12T09:14:39.924Z,3.60
2018-12-12T09:17:09.906Z,3.50
2018-12-12T09:19:40.240Z,3.50
2018-12-12T09:22:09.852Z,3.30
2018-12-12T09:24:39.556Z,3.40
2018-12-12T09:27:15.741Z,3.40
2018-12-12T09:29:52.229Z,3.50
2018-12-12T09:32:24.891Z,3.60
2018-12-12T09:34:54.675Z,3.70
2018-12-12T09:37:23.599Z,3.90
2018-12-12T09:39:53.039Z,4.10
2018-12-12T09:42:26.129Z,4.00
2018-12-12T09:44:55.067Z,4.00
2018-12-12T09:47:26.433Z,4.00
2018-12-12T09:49:56.967Z,3.90
2018-12-12T09:52:27.936Z,3.90
2018-12-12T09:54:56.909Z,4.00
2018-12-12T09:57:29.767Z,3.90
2018-12-12T09:59:59.099Z,3.90
2018-12-12T10:02:28.745Z,4.00
2018-12-12T10:05:00.070Z,4.10
2018-12-12T10:07:29.629Z,3.80
2018-12-12T10:09:58.199Z,3.90
2018-12-12T10:12:33.253Z,4.00
2018-12-12T10:15:12.042Z,4.00
2018-12-12T10:17:41.507Z,3.90
2018-12-12T10:20:12.070Z,3.90
2018-12-12T10:22:42.532Z,3.80
2018-12-12T10:25:10.814Z,4.00
2018-12-12T10:27:42.591Z,4.00
2018-12-12T10:30:11.337Z,4.30
2018-12-12T10:32:39.941Z,4.40
2018-12-12T10:35:14.605Z,4.40
2018-12-12T10:37:45.551Z,4.20
2018-12-12T10:40:14.701Z,4.30
2018-12-12T10:42:43.895Z,4.20
2018-12-12T10:45:13.785Z,4.30
2018-12-12T10:47:41.845Z,4.40
2018-12-12T10:50:13.677Z,4.20
2018-12-12T10:52:41.931Z,4.30
2018-12-12T10:55:11.980Z,4.10
2018-12-12T10:57:42.322Z,4.10
2018-12-12T11:00:12.945Z,4.00
2018-12-12T11:02:52.779Z,4.10
2018-12-12T11:05:23.167Z,4.20
2018-12-12T11:08:01.580Z,4.20
2018-12-12T11:10:31.724Z,4.00
2018-12-12T11:13:00.182Z,3.90
2018-12-12T11:15:28.959Z,3.80
2018-12-12T11:17:57.842Z,3.80
2018-12-12T11:20:28.459Z,3.60
2018-12-12T11:22:58.299Z,3.70
2018-12-12T11:25:27.088Z,3.80
2018-12-12T11:27:56.484Z,3.90
2018-12-12T11:30:26.450Z,4.00
2018-12-12T11:32:56.501Z,4.00
2018-12-12T11:35:25.525Z,3.80
2018-12-12T11:37:59.352Z,3.80
2018-12-12T11:40:28.726Z,3.80
2018-12-12T11:42:58.023Z,3.80
2018-12-12T11:45:29.885Z,3.80
2018-12-12T11:48:01.078Z,3.90
2018-12-12T11:50:29.383Z,3.90
2018-12-12T11:52:58.411Z,4.10
2018-12-12T11:55:27.955Z,4.10
2018-12-12T11:57:56.645Z,4.00
2018-12-12T12:00:26.114Z,4.00
2018-12-12T12:02:54.104Z,4.00
2018-12-12T12:05:23.077Z,4.10
2018-12-12T12:07:58.613Z,4.10
2018-12-12T12:10:29.518Z,4.20
2018-12-12T12:13:05.409Z,4.20
2018-12-12T12:15:34.003Z,4.10
2018-12-12T12:18:02.314Z,4.00
2018-12-12T12:20:38.421Z,4.10
2018-12-12T12:23:09.402Z,3.90
2018-12-12T12:25:41.252Z,3.80
2018-12-12T12:28:10.163Z,3.80
2018-12-12T12:30:42.304Z,3.60
2018-12-12T12:33:13.833Z,3.80
2018-12-12T12:35:43.813Z,3.80
2018-12-12T12:38:15.305Z,3.70
2018-12-12T12:40:49.847Z,3.70
2018-12-12T12:43:19.839Z,3.60
2018-12-12T12:45:49.739Z,3.60
2018-12-12T12:48:19.750Z,3.50
2018-12-12T12:50:49.272Z,3.50
2018-12-12T12:53:18.828Z,3.60
2018-12-12T12:55:48.068Z,3.60
2018-12-12T12:58:18.084Z,3.70
2018-12-12T13:00:46.961Z,3.60
2018-12-12T13:03:17.596Z,3.60
2018-12-12T13:05:49.893Z,3.50
2018-12-12T13:08:21.363Z,3.60
2018-12-12T13:10:56.477Z,3.60
2018-12-12T13:13:27.422Z,3.70
2018-12-12T13:15:57.361Z,3.50
2018-12-12T13:18:27.865Z,3.50
2018-12-12T13:20:55.951Z,3.60
2018-12-12T13:23:26.983Z,3.70
2018-12-12T13:25:55.791Z,3.70
2018-12-12T13:31:00.102Z,3.70
2018-12-12T13:33:32.105Z,3.70
2018-12-12T13:36:01.782Z,3.60
2018-12-12T13:38:30.462Z,3.60
2018-12-12T13:41:00.287Z,3.70
2018-12-12T13:43:30.612Z,3.70
2018-12-12T13:46:00.714Z,3.80
2018-12-12T13:48:30.215Z,3.80
2018-12-12T13:50:58.966Z,3.90
2018-12-12T13:53:30.555Z,3.80
2018-12-12T13:56:01.363Z,3.80
2018-12-12T13:58:30.888Z,3.90
2018-12-12T14:01:00.200Z,3.80
2018-12-12T14:03:29.679Z,3.80
2018-12-12T14:06:00.518Z,3.90
2018-12-12T14:08:31.475Z,3.90
2018-12-12T14:11:04.551Z,3.80
2018-12-12T14:13:37.893Z,3.80
2018-12-12T14:16:07.667Z,3.70
2018-12-12T14:18:36.812Z,3.70
2018-12-12T14:21:06.845Z,3.70
2018-12-12T14:23:39.019Z,3.60
2018-12-12T14:26:12.833Z,3.70
2018-12-12T14:28:42.163Z,3.60
2018-12-12T14:31:15.580Z,3.60
2018-12-12T14:33:44.959Z,3.60
2018-12-12T14:36:15.059Z,3.70
2018-12-12T14:38:44.546Z,3.60
2018-12-12T14:41:14.976Z,3.70
2018-12-12T14:43:47.117Z,3.80
2018-12-12T14:46:15.254Z,3.70
2018-12-12T14:48:45.589Z,3.60
2018-12-12T14:51:16.829Z,3.60
2018-12-12T14:53:46.257Z,3.60
2018-12-12T14:56:17.286Z,3.60
2018-12-12T14:58:48.348Z,3.60
2018-12-12T15:01:16.758Z,3.50
2018-12-12T15:03:50.217Z,3.60
2018-12-12T15:06:19.134Z,3.60
2018-12-12T15:08:49.197Z,3.50
2018-12-12T15:11:19.818Z,3.60
2018-12-12T15:13:49.083Z,3.50
2018-12-12T15:16:17.194Z,3.50
2018-12-12T15:18:46.897Z,3.40
2018-12-12T15:21:25.816Z,3.40
2018-12-12T15:23:53.019Z,3.40
2018-12-12T15:26:22.753Z,3.40
2018-12-12T15:28:54.275Z,3.40
2018-12-12T15:31:24.839Z,3.40
2018-12-12T15:33:53.394Z,3.40
2018-12-12T15:36:24.167Z,3.40
2018-12-12T15:38:53.284Z,3.40
2018-12-12T15:41:22.063Z,3.40
2018-12-12T15:43:50.689Z,3.40
2018-12-12T15:46:19.655Z,3.40
2018-12-12T15:48:49.167Z,3.30
2018-12-12T15:51:18.247Z,3.30
2018-12-12T15:53:46.947Z,3.30
2018-12-12T15:56:16.235Z,3.40
2018-12-12T15:58:45.633Z,3.50
2018-12-12T16:01:16.558Z,3.40
2018-12-12T16:03:45.616Z,3.30
2018-12-12T16:06:21.216Z,3.10
2018-12-12T16:08:50.910Z,2.90
2018-12-12T16:11:20.541Z,2.80
2018-12-12T16:13:49.655Z,2.70
2018-12-12T16:16:19.267Z,2.40
2018-12-12T16:18:55.505Z,2.00
2018-12-12T16:21:24.479Z,1.70
2018-12-12T16:23:53.641Z,1.80
2018-12-12T16:26:24.553Z,1.90
2018-12-12T16:28:52.804Z,2.00
2018-12-12T16:31:22.563Z,2.00
2018-12-12T16:33:54.169Z,1.90
2018-12-12T16:36:25.568Z,1.70
2018-12-12T16:38:54.515Z,1.70
2018-12-12T16:41:30.580Z,1.50
2018-12-12T16:44:00.517Z,1.50
2018-12-12T16:46:29.745Z,1.50
2018-12-12T16:48:59.638Z,1.60
2018-12-12T16:51:29.344Z,1.60
2018-12-12T16:53:59.769Z,1.70
2018-12-12T16:56:29.395Z,1.70
2018-12-12T16:59:02.656Z,1.60
2018-12-12T17:01:33.169Z,1.70
2018-12-12T17:04:11.877Z,1.80
2018-12-12T17:06:41.906Z,1.80
2018-12-12T17:09:11.820Z,1.90
2018-12-12T17:11:42.397Z,2.00
2018-12-12T17:14:11.159Z,2.00
2018-12-12T17:16:40.847Z,2.10
2018-12-12T17:19:13.014Z,2.00
2018-12-12T17:21:44.619Z,2.10
2018-12-12T17:24:21.106Z,2.20
2018-12-12T17:26:58.835Z,2.20
2018-12-12T17:32:12.896Z,2.20
2018-12-12T17:34:47.341Z,2.10
2018-12-12T17:37:21.796Z,2.10
2018-12-12T17:39:57.032Z,2.10
2018-12-12T17:42:37.917Z,2.10
2018-12-12T17:45:08.391Z,2.10
2018-12-12T17:47:38.275Z,2.10
2018-12-12T17:50:16.917Z,2.00
2018-12-12T17:52:45.999Z,2.00
2018-12-12T17:55:20.299Z,1.90
2018-12-12T17:58:02.007Z,2.00
2018-12-12T18:00:35.067Z,1.90
2018-12-12T18:03:07.599Z,1.70
2018-12-12T18:05:41.435Z,1.70
2018-12-12T18:08:15.922Z,1.70
2018-12-12T18:10:50.296Z,1.80
2018-12-12T18:13:21.045Z,1.80
2018-12-12T18:21:21.223Z,1.50
2018-12-12T18:23:57.980Z,1.50
2018-12-12T18:26:28.103Z,1.30
2018-12-12T18:31:37.047Z,1.20
2018-12-12T18:34:16.613Z,1.10
2018-12-12T18:36:49.236Z,1.10
2018-12-12T18:39:18.924Z,1.10
2018-12-12T18:41:49.004Z,1.10
2018-12-12T18:44:29.767Z,1.10
2018-12-12T18:47:01.423Z,1.00
2018-12-12T18:49:31.947Z,1.00
2018-12-12T18:52:06.274Z,1.00
2018-12-12T18:54:47.349Z,1.10
2018-12-12T19:00:07.956Z,1.00
2018-12-12T19:02:49.765Z,1.00
2018-12-12T19:05:28.400Z,1.00
2018-12-12T19:08:09.895Z,1.00
2018-12-12T19:13:19.924Z,0.80
2018-12-12T19:15:55.452Z,0.80
2018-12-12T19:18:44.746Z,0.70
2018-12-12T19:21:15.411Z,0.70
2018-12-12T19:26:28.821Z,0.60
2018-12-12T19:28:57.780Z,0.70
2018-12-12T19:31:30.811Z,0.80
2018-12-12T19:33:59.669Z,0.80
2018-12-12T19:39:10.559Z,0.90
2018-12-12T19:41:44.472Z,0.70
2018-12-12T19:44:19.566Z,0.60
2018-12-12T19:46:51.060Z,0.50
2018-12-12T19:49:29.102Z,0.40
2018-12-12T19:57:48.384Z,0.40
2018-12-12T20:00:24.779Z,0.30
2018-12-12T20:02:53.363Z,0.40
2018-12-12T20:05:24.993Z,0.40
2018-12-12T20:07:53.754Z,0.40
2018-12-12T20:13:21.563Z,0.50
2018-12-12T20:15:50.177Z,0.50
2018-12-12T20:18:25.799Z,0.60
2018-12-12T20:20:54.269Z,0.70
2018-12-12T20:23:23.722Z,0.60
2018-12-12T20:25:53.690Z,0.60
2018-12-12T20:31:15.480Z,0.70
2018-12-12T20:39:24.091Z,0.80
2018-12-12T20:41:54.855Z,0.80
2018-12-12T20:47:09.811Z,0.90
2018-12-12T20:49:48.232Z,0.80
2018-12-12T20:52:21.733Z,0.80
2018-12-12T20:54:57.928Z,0.90
2018-12-12T20:57:45.207Z,1.00
2018-12-12T21:03:06.027Z,1.00
2018-12-12T21:05:43.248Z,1.00
2018-12-12T21:08:18.145Z,1.00
2018-12-12T21:11:00.619Z,1.10
2018-12-12T21:13:29.465Z,1.00
2018-12-12T21:15:59.240Z,1.10
2018-12-12T21:18:30.601Z,1.20
2018-12-12T21:21:03.374Z,1.30
2018-12-12T21:23:31.836Z,1.30
2018-12-12T21:26:03.257Z,1.30
2018-12-12T21:28:32.123Z,1.20
2018-12-12T21:31:04.214Z,1.30
2018-12-12T21:33:33.410Z,1.30
2018-12-12T21:36:04.300Z,1.30
2018-12-12T21:38:34.431Z,1.30
2018-12-12T21:41:08.956Z,1.30
2018-12-12T21:43:37.128Z,1.30
2018-12-12T21:46:07.295Z,1.30
2018-12-12T21:48:37.403Z,1.30
2018-12-12T21:51:09.303Z,1.30
2018-12-12T21:53:39.008Z,1.30
2018-12-12T21:56:08.231Z,1.30
2018-12-12T22:01:19.331Z,1.20
2018-12-12T22:03:50.334Z,1.30
2018-12-12T22:06:19.870Z,1.20
2018-12-12T22:08:49.993Z,1.10
2018-12-12T22:11:19.439Z,1.00
2018-12-12T22:13:47.525Z,1.00
2018-12-12T22:16:18.381Z,1.00
2018-12-12T22:18:47.945Z,0.90
2018-12-12T22:21:19.129Z,0.80
2018-12-12T22:23:49.740Z,0.80
2018-12-12T22:26:18.546Z,0.80
2018-12-12T22:28:48.419Z,0.60
2018-12-12T22:31:17.376Z,0.60
2018-12-12T22:33:46.879Z,0.50
2018-12-12T22:36:15.052Z,0.40
2018-12-12T22:38:43.452Z,0.40
2018-12-12T22:41:12.840Z,0.40
2018-12-12T22:43:44.992Z,0.40
2018-12-12T22:46:13.972Z,0.30
2018-12-12T22:48:43.880Z,0.30
2018-12-12T22:51:13.894Z,0.40
2018-12-12T22:53:42.484Z,0.40
2018-12-12T22:56:11.235Z,0.40
2018-12-12T23:01:23.685Z,0.60
2018-12-12T23:03:52.254Z,0.70
2018-12-12T23:06:21.549Z,0.60
2018-12-12T23:08:49.739Z,0.70
2018-12-12T23:11:18.958Z,0.60
2018-12-12T23:13:48.583Z,0.60
2018-12-12T23:16:18.348Z,0.60
2018-12-12T23:18:48.258Z,0.70
2018-12-12T23:21:16.527Z,0.70
2018-12-12T23:23:44.794Z,0.70
2018-12-12T23:26:13.776Z,0.70
2018-12-12T23:28:44.411Z,0.70
2018-12-12T23:31:14.146Z,0.80
2018-12-12T23:33:42.718Z,0.70
2018-12-12T23:36:11.933Z,0.70
2018-12-12T23:38:41.344Z,0.60
2018-12-12T23:41:10.561Z,0.60
2018-12-12T23:43:38.689Z,0.70
2018-12-12T23:46:06.816Z,0.80
2018-12-12T23:48:36.732Z,0.90
2018-12-12T23:51:06.695Z,0.90
2018-12-12T23:53:34.927Z,1.00
2018-12-12T23:56:04.794Z,1.00
2018-12-12T23:58:32.953Z,0.80
